Details for Flybe at EGBB




Go Back


Latest METAR
Local Time

EGBB 240750Z 05010KT 8000 BKN010 11/08 Q1023

24/05/2018, 09:04:57

Description
Results
Flybe Logo
Number of Pilots based at EGBB
1 Pilots Based here
Number of Flybe Flights Departed from EGBB
7 Flights Departed
Number of Flybe Flights Arrived at EGBB
5 Flights Arrived
Number of Flybe Schedules Departing from EGBB
79 Schedules
Number of Flybe Schedules Arriving at EGBB
80 Schedules
Number of Flybe Schedules Departing from EGBB availible today
50 Schedules Today
Number of Flybe Schedules Arriving at EGBB availible today
50 Schedules Today
Average Landing Rate at EGBB
-224 fpm
Flybe Average Landing Rate at EGBB
-126 fpm
Total Fuel Purchased at EGBB by Flybe
5,940.70 kgs / 13,096.87 lbs

Pilots Based at EGBB


Pilot ID
Pilot Name
Pilot Rank
No. of Flights
No. of Flying Hours
Dave Butler
27
27.35
Content